createdAt,value
2023-04-05T00:01:20.305Z,24.00
2023-04-05T00:03:48.813Z,24.40
2023-04-05T00:06:17.330Z,22.90
2023-04-05T00:08:50.356Z,24.10
2023-04-05T00:11:18.876Z,24.10
2023-04-05T00:13:47.380Z,25.20
2023-04-05T00:16:17.800Z,24.50
2023-04-05T00:18:51.544Z,24.40
2023-04-05T00:21:24.606Z,24.50
2023-04-05T00:23:57.163Z,25.20
2023-04-05T00:26:26.165Z,23.70
2023-04-05T00:28:54.513Z,23.00
2023-04-05T00:31:22.943Z,21.70
2023-04-05T00:33:51.905Z,24.40
2023-04-05T00:36:21.116Z,23.10
2023-04-05T00:38:49.869Z,20.80
2023-04-05T00:41:18.471Z,19.20
2023-04-05T00:43:47.282Z,22.70
2023-04-05T00:46:16.950Z,21.10
2023-04-05T00:48:45.601Z,21.40
2023-04-05T00:51:13.972Z,20.60
2023-04-05T00:53:43.147Z,22.90
2023-04-05T00:56:13.944Z,17.70
2023-04-05T00:58:42.641Z,17.00
2023-04-05T01:01:20.595Z,19.90
2023-04-05T01:04:11.424Z,17.40
2023-04-05T01:07:07.639Z,15.90
2023-04-05T01:09:55.944Z,16.30
2023-04-05T01:12:28.397Z,18.50
2023-04-05T01:14:56.781Z,18.00
2023-04-05T01:17:36.797Z,16.90
2023-04-05T01:20:13.005Z,16.70
2023-04-05T01:23:06.599Z,16.90
2023-04-05T01:26:11.320Z,16.60
2023-04-05T01:29:08.071Z,16.70
2023-04-05T01:32:18.370Z,15.80
2023-04-05T01:35:17.068Z,15.10
2023-04-05T01:37:51.008Z,14.50
2023-04-05T01:40:19.964Z,15.60
2023-04-05T01:42:48.394Z,16.50
2023-04-05T01:45:16.801Z,15.60
2023-04-05T01:47:45.270Z,15.80
2023-04-05T01:50:13.630Z,15.50
2023-04-05T01:52:41.944Z,15.40
2023-04-05T01:55:10.365Z,14.90
2023-04-05T01:57:39.166Z,15.30
2023-04-05T02:00:08.706Z,14.20
2023-04-05T02:02:37.154Z,14.90
2023-04-05T02:05:06.107Z,16.50
2023-04-05T02:07:34.684Z,17.20
2023-04-05T02:10:03.388Z,15.60
2023-04-05T02:12:31.922Z,14.90
2023-04-05T02:15:00.925Z,14.90
2023-04-05T02:17:34.156Z,15.40
2023-04-05T02:20:04.594Z,13.70
2023-04-05T02:22:32.917Z,15.30
2023-04-05T02:25:01.712Z,15.70
2023-04-05T02:27:30.766Z,13.60
2023-04-05T02:29:59.101Z,17.80
2023-04-05T02:32:27.617Z,15.70
2023-04-05T02:34:56.264Z,14.60
2023-04-05T02:37:26.383Z,14.80
2023-04-05T02:39:54.791Z,14.50
2023-04-05T02:42:23.130Z,17.00
2023-04-05T02:44:52.644Z,16.20
2023-04-05T02:47:21.741Z,15.70
2023-04-05T02:49:50.364Z,14.60
2023-04-05T02:52:18.732Z,13.00
2023-04-05T02:54:47.080Z,14.70
2023-04-05T02:57:16.345Z,13.90
2023-04-05T02:59:45.293Z,12.90
2023-04-05T03:02:13.652Z,14.50
2023-04-05T03:04:44.954Z,12.80
2023-04-05T03:07:18.695Z,12.40
2023-04-05T03:09:47.549Z,13.50
2023-04-05T03:12:15.956Z,12.80
2023-04-05T03:14:46.107Z,13.40
2023-04-05T03:17:14.566Z,13.50
2023-04-05T03:19:42.913Z,11.90
2023-04-05T03:22:11.327Z,13.70
2023-04-05T03:24:39.701Z,11.20
2023-04-05T03:27:08.127Z,12.20
2023-04-05T03:29:36.438Z,13.50
2023-04-05T03:32:05.273Z,11.00
2023-04-05T03:34:33.576Z,12.10
2023-04-05T03:37:01.878Z,12.40
2023-04-05T03:39:30.303Z,13.50
2023-04-05T03:41:58.801Z,13.20
2023-04-05T03:44:27.216Z,14.90
2023-04-05T03:46:55.598Z,13.40
2023-04-05T03:49:25.106Z,16.90
2023-04-05T03:51:53.430Z,15.30
2023-04-05T03:54:22.006Z,15.70
2023-04-05T03:56:50.600Z,15.20
2023-04-05T03:59:19.051Z,13.10
2023-04-05T04:01:48.192Z,13.10
2023-04-05T04:04:16.543Z,14.10
2023-04-05T04:06:44.880Z,13.60
2023-04-05T04:09:13.181Z,11.40
2023-04-05T04:11:41.584Z,10.90
2023-04-05T04:14:09.863Z,10.70
2023-04-05T04:16:38.212Z,9.90
2023-04-05T04:19:06.518Z,11.60
2023-04-05T04:21:35.793Z,11.00
2023-04-05T04:24:04.615Z,11.10
2023-04-05T04:26:37.519Z,10.80
2023-04-05T04:29:06.856Z,10.80
2023-04-05T04:31:35.260Z,10.40
2023-04-05T04:34:05.576Z,10.50
2023-04-05T04:36:37.019Z,11.50
2023-04-05T04:39:08.103Z,11.10
2023-04-05T04:41:38.277Z,11.60
2023-04-05T04:44:06.638Z,11.50
2023-04-05T04:46:42.694Z,11.90
2023-04-05T04:49:11.195Z,10.60
2023-04-05T04:51:39.737Z,9.70
2023-04-05T04:54:08.061Z,10.60
2023-04-05T04:56:36.710Z,10.70
2023-04-05T04:59:05.052Z,9.60
2023-04-05T05:01:34.280Z,10.90
2023-04-05T05:04:04.296Z,10.50
2023-04-05T05:06:32.705Z,12.20
2023-04-05T05:09:01.387Z,11.80
2023-04-05T05:11:29.762Z,9.90
2023-04-05T05:13:59.142Z,10.50
2023-04-05T05:16:28.221Z,10.50
2023-04-05T05:18:56.604Z,10.40
2023-04-05T05:21:25.128Z,11.90
2023-04-05T05:23:53.473Z,24.80
2023-04-05T05:26:21.741Z,47.50
2023-04-05T05:28:50.201Z,28.60
2023-04-05T05:31:19.497Z,23.30
2023-04-05T05:33:50.080Z,20.80
2023-04-05T05:36:19.991Z,28.90
2023-04-05T05:38:49.125Z,26.90
2023-04-05T05:41:17.532Z,33.10
2023-04-05T05:43:46.016Z,71.50
2023-04-05T05:46:14.702Z,69.00
2023-04-05T05:48:43.081Z,42.30
2023-04-05T05:51:11.653Z,27.60
2023-04-05T05:53:40.481Z,20.20
2023-04-05T05:56:08.816Z,13.70
2023-04-05T05:58:39.844Z,13.40
2023-04-05T06:01:08.755Z,12.10
2023-04-05T06:03:37.449Z,18.00
2023-04-05T06:06:08.472Z,14.90
2023-04-05T06:08:38.300Z,15.50
2023-04-05T06:11:06.989Z,16.20
2023-04-05T06:13:35.444Z,16.30
2023-04-05T06:18:42.192Z,25.50
2023-04-05T06:21:12.403Z,19.70
2023-04-05T06:23:52.432Z,16.30
2023-04-05T06:26:31.436Z,13.90
2023-04-05T06:29:21.247Z,15.00
2023-04-05T06:31:49.968Z,15.00
2023-04-05T06:34:26.948Z,15.10
2023-04-05T06:37:12.655Z,16.50
2023-04-05T06:39:44.709Z,14.60
2023-04-05T06:42:13.186Z,15.40
2023-04-05T06:44:48.732Z,13.80
2023-04-05T06:47:19.878Z,14.30
2023-04-05T06:50:23.356Z,13.80
2023-04-05T06:52:51.940Z,13.20
2023-04-05T06:55:20.645Z,15.80
2023-04-05T06:57:52.958Z,15.00
2023-04-05T07:00:21.811Z,15.60
2023-04-05T07:04:19.923Z,14.60
2023-04-05T07:06:48.307Z,12.50
2023-04-05T07:09:17.161Z,13.40
2023-04-05T07:11:45.687Z,13.50
2023-04-05T07:14:14.220Z,14.20
2023-04-05T07:16:42.704Z,15.10
2023-04-05T07:19:11.393Z,13.80
2023-04-05T07:21:39.917Z,13.90
2023-04-05T07:24:08.905Z,13.20
2023-04-05T07:26:37.826Z,13.70
2023-04-05T07:29:10.059Z,14.10
2023-04-05T07:31:40.016Z,12.00
2023-04-05T07:34:08.464Z,12.80
2023-04-05T07:36:37.361Z,12.40
2023-04-05T07:39:05.917Z,11.40
2023-04-05T07:41:37.783Z,11.40
2023-04-05T07:44:06.636Z,12.60
2023-04-05T07:46:36.381Z,13.10
2023-04-05T07:49:04.902Z,13.40
2023-04-05T07:51:41.209Z,12.30
2023-04-05T07:54:10.178Z,12.30
2023-04-05T07:56:38.574Z,12.20
2023-04-05T07:59:06.965Z,12.40
2023-04-05T08:01:35.406Z,11.00
2023-04-05T08:04:03.866Z,12.50
2023-04-05T08:06:32.249Z,11.70
2023-04-05T08:09:00.587Z,10.00
2023-04-05T08:11:28.936Z,9.20
2023-04-05T08:13:57.882Z,8.50
2023-04-05T08:19:40.979Z,20.10
2023-04-05T08:22:30.440Z,9.80
2023-04-05T08:25:01.190Z,9.80
2023-04-05T08:27:29.706Z,10.80
2023-04-05T08:29:58.022Z,11.00
2023-04-05T08:32:26.402Z,10.50
2023-04-05T08:34:54.824Z,7.90
2023-04-05T08:37:23.157Z,9.80
2023-04-05T08:39:51.460Z,9.10
2023-04-05T08:42:31.986Z,8.50
2023-04-05T08:45:04.274Z,8.90
2023-04-05T08:47:36.785Z,7.90
2023-04-05T08:50:06.280Z,9.20
2023-04-05T08:52:38.143Z,9.50
2023-04-05T08:55:07.023Z,10.90
2023-04-05T08:57:39.399Z,10.00
2023-04-05T09:00:09.522Z,9.60
2023-04-05T09:02:38.993Z,7.60
2023-04-05T09:05:10.878Z,10.30
2023-04-05T09:07:40.836Z,10.00
2023-04-05T09:10:09.365Z,10.10
2023-04-05T09:12:38.642Z,9.50
2023-04-05T09:15:07.593Z,9.70
2023-04-05T09:17:39.263Z,9.40
2023-04-05T09:20:08.041Z,10.20
2023-04-05T09:22:47.535Z,10.80
2023-04-05T09:25:39.551Z,10.00
2023-04-05T09:28:13.318Z,10.30
2023-04-05T09:30:47.237Z,10.40
2023-04-05T09:33:25.620Z,11.70
2023-04-05T09:35:55.602Z,11.50
2023-04-05T09:38:44.659Z,11.00
2023-04-05T09:41:13.073Z,9.60
2023-04-05T09:43:42.682Z,10.60
2023-04-05T09:46:32.007Z,10.90
2023-04-05T09:49:02.472Z,9.60
2023-04-05T09:51:38.859Z,10.70
2023-04-05T09:54:11.323Z,10.30
2023-04-05T09:56:42.001Z,9.50
2023-04-05T09:59:12.864Z,8.90
2023-04-05T10:01:45.121Z,8.80
2023-04-05T10:04:14.382Z,9.00
2023-04-05T10:06:43.065Z,9.10
2023-04-05T10:09:16.571Z,8.20
2023-04-05T10:11:45.969Z,9.20
2023-04-05T10:14:14.837Z,6.10
2023-04-05T10:17:28.069Z,8.20
2023-04-05T10:20:18.466Z,5.50
2023-04-05T10:22:59.869Z,6.00
2023-04-05T10:25:31.146Z,5.60
2023-04-05T10:34:41.671Z,4.50
2023-04-05T10:37:37.400Z,4.50
2023-04-05T10:40:09.912Z,4.10
2023-04-05T10:42:46.629Z,4.90
2023-04-05T10:45:23.325Z,4.50
2023-04-05T10:48:21.637Z,4.80
2023-04-05T10:50:50.859Z,5.80
2023-04-05T10:53:22.151Z,5.40
2023-04-05T10:55:51.067Z,5.40
2023-04-05T10:58:20.663Z,5.70
2023-04-05T11:00:51.069Z,4.80
2023-04-05T11:03:44.949Z,4.30
2023-04-05T11:06:44.025Z,4.70
2023-04-05T11:09:20.317Z,4.40
2023-04-05T11:11:52.023Z,5.60
2023-04-05T11:14:36.023Z,5.20
2023-04-05T11:17:05.032Z,5.50
2023-04-05T11:19:47.901Z,5.30
2023-04-05T11:22:27.663Z,5.30
2023-04-05T11:25:02.028Z,5.10
2023-04-05T11:27:33.962Z,5.40
2023-04-05T11:30:05.487Z,4.90
2023-04-05T11:32:47.141Z,5.30
2023-04-05T11:35:22.965Z,4.80
2023-04-05T11:38:00.961Z,5.40
2023-04-05T11:40:41.036Z,5.30
2023-04-05T11:43:12.596Z,5.50
2023-04-05T11:45:44.554Z,5.50
2023-04-05T11:48:14.445Z,6.10
2023-04-05T11:50:43.020Z,5.20
2023-04-05T11:53:20.046Z,6.50
2023-04-05T11:55:51.795Z,5.80
2023-04-05T11:58:24.205Z,6.20
2023-04-05T12:01:01.379Z,6.70
2023-04-05T12:03:31.190Z,5.50
2023-04-05T12:06:03.622Z,5.30
2023-04-05T12:08:49.885Z,5.80
2023-04-05T12:11:27.235Z,5.60
2023-04-05T12:14:02.503Z,7.40
2023-04-05T12:19:00.939Z,7.90
2023-04-05T12:21:29.452Z,5.20
2023-04-05T12:23:58.816Z,9.40
2023-04-05T12:26:28.682Z,7.90
2023-04-05T12:29:00.397Z,3.90
2023-04-05T12:31:46.947Z,5.80
2023-04-05T12:34:15.992Z,8.80
2023-04-05T12:36:46.714Z,7.80
2023-04-05T12:39:17.683Z,8.60
2023-04-05T12:42:18.948Z,7.50
2023-04-05T12:45:06.363Z,4.80
2023-04-05T12:47:48.624Z,4.00
2023-04-05T12:50:18.883Z,4.20
2023-04-05T12:52:56.350Z,4.40
2023-04-05T12:55:27.188Z,4.10
2023-04-05T12:58:04.894Z,4.10
2023-04-05T13:00:33.801Z,5.40
2023-04-05T13:03:02.208Z,4.20
2023-04-05T13:05:31.303Z,6.10
2023-04-05T13:08:00.356Z,4.20
2023-04-05T13:10:28.893Z,6.70
2023-04-05T13:12:57.457Z,11.40
2023-04-05T13:15:25.821Z,4.20
2023-04-05T13:17:55.157Z,5.60
2023-04-05T13:20:23.951Z,5.40
2023-04-05T13:22:52.531Z,11.20
2023-04-05T13:25:20.994Z,4.70
2023-04-05T13:27:50.085Z,6.10
2023-04-05T13:30:18.982Z,4.60
2023-04-05T13:32:47.440Z,3.90
2023-04-05T13:35:16.142Z,4.30
2023-04-05T13:37:44.595Z,4.10
2023-04-05T13:40:13.113Z,4.90
2023-04-05T13:42:41.438Z,4.20
2023-04-05T13:45:10.529Z,5.20
2023-04-05T13:47:38.892Z,5.70
2023-04-05T13:50:08.305Z,12.20
2023-04-05T13:52:37.798Z,7.40
2023-04-05T13:55:06.695Z,10.60
2023-04-05T13:57:35.058Z,8.50
2023-04-05T14:00:04.085Z,4.50
2023-04-05T14:02:32.949Z,4.70
2023-04-05T14:05:01.429Z,4.80
2023-04-05T14:07:30.046Z,12.20
2023-04-05T14:09:58.473Z,6.80
2023-04-05T14:12:26.923Z,7.50
2023-04-05T14:14:55.301Z,8.30
2023-04-05T14:17:23.654Z,12.00
2023-04-05T14:19:52.044Z,9.10
2023-04-05T14:22:21.615Z,9.90
2023-04-05T14:24:50.017Z,9.00
2023-04-05T14:27:18.475Z,8.40
2023-04-05T14:29:47.240Z,6.80
2023-04-05T14:32:15.923Z,5.90
2023-04-05T14:34:44.275Z,6.00
2023-04-05T14:37:12.613Z,6.10
2023-04-05T14:39:41.178Z,7.00
2023-04-05T14:42:09.689Z,6.70
2023-04-05T14:44:38.954Z,7.00
2023-04-05T14:47:07.312Z,6.80
2023-04-05T14:49:35.691Z,8.00
2023-04-05T14:52:04.348Z,7.20
2023-04-05T14:54:32.764Z,6.50
2023-04-05T14:57:01.093Z,6.10
2023-04-05T14:59:29.983Z,6.20
2023-04-05T15:01:58.623Z,6.20
2023-04-05T15:04:28.392Z,6.00
2023-04-05T15:06:56.788Z,5.10
2023-04-05T15:09:25.177Z,5.40
2023-04-05T15:11:55.414Z,5.40
2023-04-05T15:14:31.739Z,5.20
2023-04-05T15:17:00.863Z,5.30
2023-04-05T15:19:30.632Z,7.50
2023-04-05T15:21:59.069Z,6.40
2023-04-05T15:24:27.554Z,4.80
2023-04-05T15:27:02.014Z,5.90
2023-04-05T15:29:31.991Z,5.50
2023-04-05T15:32:02.964Z,7.00
2023-04-05T15:34:32.184Z,6.20
2023-04-05T15:37:00.513Z,5.80
2023-04-05T15:39:28.923Z,5.90
2023-04-05T15:41:57.921Z,6.00
2023-04-05T15:44:26.798Z,5.20
2023-04-05T15:46:55.258Z,4.40
2023-04-05T15:49:23.629Z,4.40
2023-04-05T15:51:52.102Z,5.30
2023-04-05T15:54:21.191Z,4.80
2023-04-05T15:56:49.760Z,5.70
2023-04-05T15:59:18.477Z,5.40
2023-04-05T16:01:47.238Z,4.50
2023-04-05T16:04:16.099Z,5.40
2023-04-05T16:06:44.545Z,4.70
2023-04-05T16:09:13.016Z,4.80
2023-04-05T16:11:41.496Z,5.00
2023-04-05T16:14:11.431Z,6.20
2023-04-05T16:16:50.503Z,5.70
2023-04-05T16:19:24.600Z,4.80
2023-04-05T16:21:53.503Z,5.50
2023-04-05T16:24:22.032Z,6.10
2023-04-05T16:26:50.426Z,6.00
2023-04-05T16:29:19.162Z,5.70
2023-04-05T16:31:47.825Z,5.20
2023-04-05T16:34:16.512Z,5.40
2023-04-05T16:36:44.964Z,6.10
2023-04-05T16:39:13.389Z,5.80
2023-04-05T16:41:41.910Z,5.70
2023-04-05T16:44:10.445Z,8.60
2023-04-05T16:46:40.118Z,9.60
2023-04-05T16:49:08.617Z,8.60
2023-04-05T16:51:37.308Z,8.00
2023-04-05T16:54:05.912Z,6.00
2023-04-05T16:56:34.404Z,7.10
2023-04-05T16:59:05.069Z,6.90
2023-04-05T17:01:35.560Z,7.80
2023-04-05T17:04:04.011Z,6.00
2023-04-05T17:06:32.608Z,5.40
2023-04-05T17:09:01.312Z,6.10
2023-04-05T17:11:30.038Z,5.50
2023-04-05T17:13:59.617Z,7.20
2023-04-05T17:16:28.369Z,7.10
2023-04-05T17:18:56.883Z,7.10
2023-04-05T17:21:26.047Z,8.70
2023-04-05T17:25:54.389Z,7.80
2023-04-05T17:28:22.829Z,7.00
2023-04-05T17:30:51.402Z,7.50
2023-04-05T17:33:19.749Z,7.60
2023-04-05T17:35:49.094Z,8.80
2023-04-05T17:38:17.474Z,8.40
2023-04-05T17:40:53.165Z,9.20
2023-04-05T17:43:21.619Z,10.00
2023-04-05T17:45:50.332Z,9.10
2023-04-05T17:48:19.205Z,8.60
2023-04-05T17:50:47.664Z,10.10
2023-04-05T17:53:16.699Z,22.20
2023-04-05T17:55:45.149Z,35.10
2023-04-05T17:58:13.688Z,39.10
2023-04-05T18:00:42.245Z,34.90
2023-04-05T18:03:12.962Z,29.60
2023-04-05T18:05:41.835Z,22.40
2023-04-05T18:08:10.186Z,15.40
2023-04-05T18:10:38.560Z,13.10
2023-04-05T18:13:06.941Z,14.60
2023-04-05T18:15:35.566Z,16.80
2023-04-05T18:18:04.303Z,14.50
2023-04-05T18:20:33.168Z,17.30
2023-04-05T18:23:01.508Z,21.20
2023-04-05T18:25:29.888Z,22.80
2023-04-05T18:27:58.304Z,19.10
2023-04-05T18:30:26.687Z,13.60
2023-04-05T18:32:55.151Z,12.00
2023-04-05T18:35:23.577Z,10.70
2023-04-05T18:37:52.026Z,11.40
2023-04-05T18:40:21.023Z,11.50
2023-04-05T18:42:49.479Z,12.40
2023-04-05T18:45:18.505Z,13.80
2023-04-05T18:47:46.884Z,17.80
2023-04-05T18:50:15.667Z,17.30
2023-04-05T18:52:44.137Z,18.60
2023-04-05T18:55:14.033Z,18.10
2023-04-05T18:57:42.467Z,18.60
2023-04-05T19:00:11.665Z,16.30
2023-04-05T19:02:41.117Z,17.30
2023-04-05T19:05:10.354Z,18.10
2023-04-05T19:07:38.791Z,16.30
2023-04-05T19:10:08.124Z,16.60
2023-04-05T19:12:36.550Z,17.60
2023-04-05T19:15:05.684Z,19.50
2023-04-05T19:17:34.211Z,19.80
2023-04-05T19:20:03.042Z,22.80
2023-04-05T19:22:31.435Z,23.80
2023-04-05T19:25:01.077Z,30.00
2023-04-05T19:27:34.391Z,30.40
2023-04-05T19:30:04.086Z,30.50
2023-04-05T19:32:32.455Z,34.30
2023-04-05T19:35:01.137Z,36.50
2023-04-05T19:37:30.733Z,70.80
2023-04-05T19:39:59.085Z,56.40
2023-04-05T19:42:27.624Z,36.30
2023-04-05T19:44:58.074Z,67.00
2023-04-05T19:47:26.983Z,32.40
2023-04-05T19:49:57.220Z,27.50
2023-04-05T19:52:47.996Z,24.30
2023-04-05T19:55:31.201Z,27.70
2023-04-05T19:58:01.892Z,40.80
2023-04-05T20:00:48.629Z,41.10
2023-04-05T20:03:38.509Z,42.40
2023-04-05T20:06:08.878Z,41.20
2023-04-05T20:08:39.772Z,44.40
2023-04-05T20:11:13.145Z,29.90
2023-04-05T20:13:57.260Z,26.40
2023-04-05T20:16:34.209Z,24.40
2023-04-05T20:19:07.044Z,24.70
2023-04-05T20:21:39.749Z,26.00
2023-04-05T20:24:12.926Z,26.20
2023-04-05T20:26:41.414Z,26.30
2023-04-05T20:29:10.193Z,25.70
2023-04-05T20:31:40.129Z,26.10
2023-04-05T20:34:19.674Z,27.00
2023-04-05T20:36:54.726Z,26.40
2023-04-05T20:39:23.942Z,28.20
2023-04-05T20:41:52.689Z,25.90
2023-04-05T20:44:21.536Z,27.00
2023-04-05T20:46:53.234Z,26.60
2023-04-05T20:49:24.339Z,28.00
2023-04-05T20:51:54.989Z,24.70
2023-04-05T20:54:24.302Z,25.70
2023-04-05T20:56:53.208Z,24.60
2023-04-05T20:59:21.703Z,25.20
2023-04-05T21:01:50.675Z,24.30
2023-04-05T21:04:19.086Z,25.80
2023-04-05T21:06:47.514Z,25.40
2023-04-05T21:09:15.978Z,23.20
2023-04-05T21:11:44.399Z,24.30
2023-04-05T21:14:12.924Z,25.40
2023-04-05T21:16:41.450Z,23.70
2023-04-05T21:19:10.001Z,24.00
2023-04-05T21:21:38.507Z,23.30
2023-04-05T21:24:06.947Z,24.00
2023-04-05T21:26:35.403Z,25.70
2023-04-05T21:29:03.720Z,24.60
2023-04-05T21:31:32.145Z,26.40
2023-04-05T21:34:00.613Z,23.40
2023-04-05T21:36:29.258Z,25.50
2023-04-05T21:38:57.603Z,28.50
2023-04-05T21:41:26.062Z,30.70
2023-04-05T21:43:54.496Z,31.20
2023-04-05T21:46:22.867Z,29.70
2023-04-05T21:48:51.232Z,28.90
2023-04-05T21:51:19.765Z,33.80
2023-04-05T21:53:48.196Z,33.10
2023-04-05T21:56:16.728Z,35.70
2023-04-05T21:58:45.153Z,38.70
2023-04-05T22:01:13.790Z,37.40
2023-04-05T22:03:42.161Z,38.90
2023-04-05T22:06:10.768Z,38.70
2023-04-05T22:08:39.179Z,36.90
2023-04-05T22:11:08.241Z,34.00
2023-04-05T22:13:36.538Z,30.60
2023-04-05T22:16:05.195Z,32.10
2023-04-05T22:18:33.627Z,30.40
2023-04-05T22:21:02.004Z,33.20
2023-04-05T22:23:30.615Z,33.10
2023-04-05T22:25:58.996Z,31.60
2023-04-05T22:28:27.433Z,33.40
2023-04-05T22:30:55.817Z,32.30
2023-04-05T22:33:24.089Z,35.00
2023-04-05T22:35:52.522Z,32.50
2023-04-05T22:38:21.310Z,33.30
2023-04-05T22:40:49.727Z,34.40
2023-04-05T22:43:18.207Z,38.40
2023-04-05T22:45:49.776Z,39.40
2023-04-05T22:48:18.427Z,44.40
2023-04-05T22:50:46.794Z,45.40
2023-04-05T22:53:15.427Z,44.00
2023-04-05T22:55:43.833Z,42.30
2023-04-05T22:58:12.506Z,44.00
2023-04-05T23:00:40.845Z,42.80
2023-04-05T23:03:09.949Z,41.90
2023-04-05T23:05:38.616Z,44.10
2023-04-05T23:08:06.953Z,41.80
2023-04-05T23:10:35.510Z,44.90
2023-04-05T23:13:03.858Z,40.00
2023-04-05T23:15:32.414Z,42.80
2023-04-05T23:18:00.820Z,36.40
2023-04-05T23:20:29.242Z,37.50
2023-04-05T23:22:58.164Z,36.70
2023-04-05T23:25:26.545Z,35.20
2023-04-05T23:27:55.022Z,37.20
2023-04-05T23:30:23.412Z,38.50
2023-04-05T23:32:51.904Z,38.00
2023-04-05T23:35:21.295Z,36.10
2023-04-05T23:37:49.843Z,31.80
2023-04-05T23:40:18.192Z,34.10
2023-04-05T23:42:46.586Z,32.90
2023-04-05T23:45:15.618Z,34.20
2023-04-05T23:47:43.994Z,33.40
2023-04-05T23:50:12.348Z,32.70
2023-04-05T23:52:40.836Z,33.80
2023-04-05T23:55:09.653Z,33.40
2023-04-05T23:57:38.008Z,33.80
